createdAt,value
2023-05-13T00:00:45.329Z,10.70
2023-05-13T00:02:49.721Z,10.70
2023-05-13T00:04:52.745Z,10.60
2023-05-13T00:06:55.682Z,10.70
2023-05-13T00:08:59.050Z,10.70
2023-05-13T00:11:02.422Z,10.70
2023-05-13T00:13:05.437Z,10.70
2023-05-13T00:15:11.660Z,10.70
2023-05-13T00:17:14.710Z,10.70
2023-05-13T00:19:19.224Z,10.70
2023-05-13T00:21:22.397Z,10.80
2023-05-13T00:23:25.331Z,10.90
2023-05-13T00:25:28.307Z,10.90
2023-05-13T00:27:32.775Z,10.90
2023-05-13T00:29:36.134Z,10.90
2023-05-13T00:31:39.206Z,10.90
2023-05-13T00:33:42.207Z,10.90
2023-05-13T00:35:46.842Z,10.90
2023-05-13T00:37:49.705Z,10.90
2023-05-13T00:39:52.659Z,10.80
2023-05-13T00:41:55.992Z,10.80
2023-05-13T00:43:59.088Z,10.80
2023-05-13T00:46:02.450Z,10.80
2023-05-13T00:48:07.650Z,10.80
2023-05-13T00:50:12.686Z,10.80
2023-05-13T00:52:17.516Z,10.80
2023-05-13T00:54:20.497Z,10.80
2023-05-13T00:56:23.626Z,10.80
2023-05-13T00:58:26.810Z,10.80
2023-05-13T01:00:32.236Z,10.80
2023-05-13T01:02:39.953Z,10.80
2023-05-13T01:04:56.843Z,10.80
2023-05-13T01:07:10.121Z,10.80
2023-05-13T01:09:21.249Z,10.80
2023-05-13T01:11:28.580Z,10.80
2023-05-13T01:13:38.206Z,10.80
2023-05-13T01:15:47.755Z,10.70
2023-05-13T01:17:54.742Z,10.70
2023-05-13T01:19:59.405Z,10.70
2023-05-13T01:22:03.901Z,10.70
2023-05-13T01:24:08.084Z,10.70
2023-05-13T01:26:11.077Z,10.70
2023-05-13T01:28:14.359Z,10.70
2023-05-13T01:30:17.652Z,10.60
2023-05-13T01:32:21.299Z,10.60
2023-05-13T01:34:25.960Z,10.60
2023-05-13T01:36:28.893Z,10.60
2023-05-13T01:38:35.116Z,10.60
2023-05-13T01:40:39.418Z,10.60
2023-05-13T01:42:42.436Z,10.50
2023-05-13T01:44:45.367Z,10.60
2023-05-13T01:46:48.965Z,10.50
2023-05-13T01:48:51.752Z,10.50
2023-05-13T01:50:54.617Z,10.50
2023-05-13T01:52:57.456Z,10.50
2023-05-13T01:55:01.878Z,10.50
2023-05-13T01:57:05.170Z,10.50
2023-05-13T01:59:09.327Z,10.50
2023-05-13T02:01:12.099Z,10.50
2023-05-13T02:03:15.126Z,10.50
2023-05-13T02:05:18.259Z,10.50
2023-05-13T02:07:21.083Z,10.50
2023-05-13T02:09:24.050Z,10.50
2023-05-13T02:11:28.463Z,10.60
2023-05-13T02:13:31.216Z,10.50
2023-05-13T02:15:34.004Z,10.60
2023-05-13T02:17:36.897Z,10.60
2023-05-13T02:19:39.786Z,10.60
2023-05-13T02:21:43.379Z,10.60
2023-05-13T02:23:46.248Z,10.60
2023-05-13T02:25:49.087Z,10.60
2023-05-13T02:27:53.341Z,10.60
2023-05-13T02:29:56.373Z,10.60
2023-05-13T02:31:59.381Z,10.70
2023-05-13T02:34:02.353Z,10.70
2023-05-13T02:36:05.795Z,10.70
2023-05-13T02:38:10.906Z,10.70
2023-05-13T02:40:14.327Z,10.70
2023-05-13T02:42:17.270Z,10.70
2023-05-13T02:44:21.632Z,10.60
2023-05-13T02:46:24.861Z,10.60
2023-05-13T02:48:27.898Z,10.60
2023-05-13T02:50:30.872Z,10.50
2023-05-13T02:52:35.561Z,10.50
2023-05-13T02:54:38.631Z,10.40
2023-05-13T02:56:41.472Z,10.40
2023-05-13T02:58:44.391Z,10.40
2023-05-13T03:00:48.546Z,10.30
2023-05-13T03:02:51.540Z,10.30
2023-05-13T03:04:54.848Z,10.30
2023-05-13T03:06:57.815Z,10.30
2023-05-13T03:09:00.677Z,10.30
2023-05-13T03:11:04.800Z,10.20
2023-05-13T03:13:07.716Z,10.20
2023-05-13T03:15:11.893Z,10.20
2023-05-13T03:17:16.153Z,10.10
2023-05-13T03:19:19.114Z,10.10
2023-05-13T03:21:22.029Z,10.10
2023-05-13T03:23:25.009Z,10.10
2023-05-13T03:25:27.881Z,10.10
2023-05-13T03:27:30.856Z,10.10
2023-05-13T03:29:33.736Z,10.10
2023-05-13T03:31:36.802Z,10.10
2023-05-13T03:33:41.131Z,10.10
2023-05-13T03:35:44.071Z,10.10
2023-05-13T03:37:47.134Z,10.10
2023-05-13T03:39:51.483Z,10.10
2023-05-13T03:41:54.398Z,10.10
2023-05-13T03:43:57.316Z,10.10
2023-05-13T03:46:00.247Z,10.10
2023-05-13T03:48:03.685Z,10.10
2023-05-13T03:50:09.733Z,10.10
2023-05-13T03:52:12.737Z,10.10
2023-05-13T03:54:15.750Z,10.10
2023-05-13T03:56:18.678Z,10.10
2023-05-13T03:58:22.877Z,10.00
2023-05-13T04:00:25.919Z,10.00
2023-05-13T04:02:28.944Z,10.10
2023-05-13T04:04:32.031Z,10.10
2023-05-13T04:06:36.295Z,10.10
2023-05-13T04:08:39.402Z,10.10
2023-05-13T04:10:42.574Z,10.10
2023-05-13T04:12:45.376Z,10.10
2023-05-13T04:14:48.207Z,10.10
2023-05-13T04:16:51.174Z,10.10
2023-05-13T04:18:54.120Z,10.10
2023-05-13T04:20:57.021Z,10.10
2023-05-13T04:23:01.578Z,10.20
2023-05-13T04:25:04.835Z,10.20
2023-05-13T04:27:07.763Z,10.20
2023-05-13T04:29:10.859Z,10.20
2023-05-13T04:31:13.787Z,10.20
2023-05-13T04:33:16.698Z,10.20
2023-05-13T04:35:19.604Z,10.20
2023-05-13T04:37:22.439Z,10.30
2023-05-13T04:39:26.721Z,10.30
2023-05-13T04:41:29.601Z,10.30
2023-05-13T04:43:32.518Z,10.30
2023-05-13T04:45:35.752Z,10.40
2023-05-13T04:47:38.780Z,10.40
2023-05-13T04:49:42.240Z,10.40
2023-05-13T04:51:45.535Z,10.50
2023-05-13T04:53:48.751Z,10.50
2023-05-13T04:56:00.424Z,10.60
2023-05-13T04:58:03.534Z,10.60
2023-05-13T05:00:08.285Z,10.70
2023-05-13T05:02:11.062Z,10.70
2023-05-13T05:04:14.220Z,10.70
2023-05-13T05:06:17.003Z,10.80
2023-05-13T05:08:19.762Z,10.90
2023-05-13T05:10:22.831Z,10.90
2023-05-13T05:12:27.173Z,10.90
2023-05-13T05:14:30.025Z,11.00
2023-05-13T05:16:33.116Z,11.00
2023-05-13T05:18:36.493Z,11.10
2023-05-13T05:20:39.537Z,11.10
2023-05-13T05:22:42.721Z,11.10
2023-05-13T05:24:47.621Z,11.10
2023-05-13T05:26:50.393Z,11.20
2023-05-13T05:28:54.516Z,11.20
2023-05-13T05:30:57.529Z,11.30
2023-05-13T05:33:00.556Z,11.30
2023-05-13T05:35:03.967Z,11.40
2023-05-13T05:37:07.129Z,11.50
2023-05-13T05:39:10.157Z,11.50
2023-05-13T05:41:13.095Z,11.60
2023-05-13T05:43:16.287Z,11.70
2023-05-13T05:45:20.536Z,11.70
2023-05-13T05:47:23.390Z,11.70
2023-05-13T05:49:26.293Z,11.80
2023-05-13T05:51:29.155Z,11.80
2023-05-13T05:53:32.608Z,11.90
2023-05-13T05:55:35.576Z,12.00
2023-05-13T05:57:38.281Z,12.00
2023-05-13T05:59:41.025Z,12.10
2023-05-13T06:01:46.053Z,12.10
2023-05-13T06:03:49.648Z,12.10
2023-05-13T06:05:53.398Z,12.20
2023-05-13T06:07:56.124Z,12.30
2023-05-13T06:09:58.864Z,12.30
2023-05-13T06:12:01.726Z,12.40
2023-05-13T06:14:04.621Z,12.40
2023-05-13T06:16:07.815Z,12.40
2023-05-13T06:18:12.345Z,12.50
2023-05-13T06:20:15.202Z,12.60
2023-05-13T06:22:17.988Z,12.80
2023-05-13T06:24:20.720Z,13.10
2023-05-13T06:26:23.772Z,13.40
2023-05-13T06:28:26.554Z,13.60
2023-05-13T06:30:29.468Z,13.70
2023-05-13T06:32:32.241Z,13.80
2023-05-13T06:34:36.418Z,13.80
2023-05-13T06:36:39.215Z,13.70
2023-05-13T06:38:42.323Z,13.90
2023-05-13T06:40:45.338Z,14.00
2023-05-13T06:42:48.049Z,14.10
2023-05-13T06:44:50.777Z,14.20
2023-05-13T06:46:53.752Z,14.10
2023-05-13T06:48:57.780Z,14.20
2023-05-13T06:51:01.886Z,14.40
2023-05-13T06:53:04.622Z,14.50
2023-05-13T06:55:08.741Z,14.70
2023-05-13T06:57:12.466Z,14.70
2023-05-13T06:59:15.239Z,14.80
2023-05-13T07:01:18.408Z,14.80
2023-05-13T07:03:21.379Z,15.00
2023-05-13T07:05:24.431Z,15.30
2023-05-13T07:07:28.584Z,15.60
2023-05-13T07:09:31.312Z,15.60
2023-05-13T07:11:34.065Z,15.70
2023-05-13T07:13:36.824Z,15.90
2023-05-13T07:15:39.625Z,15.80
2023-05-13T07:17:42.628Z,15.70
2023-05-13T07:19:45.745Z,15.70
2023-05-13T07:21:48.602Z,15.50
2023-05-13T07:23:52.763Z,15.50
2023-05-13T07:25:55.504Z,15.50
2023-05-13T07:27:58.252Z,15.60
2023-05-13T07:30:01.219Z,15.60
2023-05-13T07:32:07.799Z,15.70
2023-05-13T07:34:10.585Z,15.70
2023-05-13T07:36:13.305Z,15.90
2023-05-13T07:38:16.500Z,16.00
2023-05-13T07:40:21.194Z,16.20
2023-05-13T07:42:24.245Z,16.30
2023-05-13T07:44:27.039Z,16.40
2023-05-13T07:46:29.864Z,16.50
2023-05-13T07:48:32.715Z,16.60
2023-05-13T07:50:35.673Z,16.70
2023-05-13T07:52:38.564Z,16.60
2023-05-13T07:54:41.364Z,16.60
2023-05-13T07:56:46.546Z,16.40
2023-05-13T07:58:50.288Z,16.30
2023-05-13T08:00:53.016Z,16.30
2023-05-13T08:02:56.061Z,16.30
2023-05-13T08:04:59.085Z,16.30
2023-05-13T08:07:02.610Z,16.30
2023-05-13T08:09:06.486Z,16.30
2023-05-13T08:11:09.217Z,16.30
2023-05-13T08:13:13.386Z,16.30
2023-05-13T08:15:17.075Z,16.20
2023-05-13T08:17:19.958Z,16.20
2023-05-13T08:19:23.058Z,16.30
2023-05-13T08:21:25.836Z,16.20
2023-05-13T08:23:40.862Z,16.20
2023-05-13T08:25:47.619Z,16.20
2023-05-13T08:27:50.426Z,16.30
2023-05-13T08:29:54.705Z,16.50
2023-05-13T08:31:57.585Z,16.60
2023-05-13T08:34:00.785Z,16.70
2023-05-13T08:36:04.028Z,16.80
2023-05-13T08:38:06.791Z,16.90
2023-05-13T08:40:11.925Z,17.00
2023-05-13T08:42:19.084Z,17.20
2023-05-13T08:44:28.500Z,17.10
2023-05-13T08:46:34.205Z,17.20
2023-05-13T08:48:38.171Z,17.10
2023-05-13T08:50:41.082Z,16.90
2023-05-13T08:52:44.690Z,16.90
2023-05-13T08:54:48.659Z,17.00
2023-05-13T08:56:51.998Z,17.20
2023-05-13T08:58:54.952Z,17.30
2023-05-13T09:00:58.817Z,17.50
2023-05-13T09:03:03.194Z,17.60
2023-05-13T09:05:07.740Z,17.50
2023-05-13T09:07:11.331Z,17.50
2023-05-13T09:09:14.064Z,17.60
2023-05-13T09:11:17.141Z,17.70
2023-05-13T09:13:20.021Z,17.80
2023-05-13T09:15:24.888Z,18.10
2023-05-13T09:17:28.165Z,18.30
2023-05-13T09:19:32.482Z,18.50
2023-05-13T09:21:36.460Z,18.80
2023-05-13T09:23:39.457Z,18.90
2023-05-13T09:25:42.405Z,19.10
2023-05-13T09:27:47.657Z,19.20
2023-05-13T09:30:00.272Z,19.40
2023-05-13T09:32:07.612Z,19.50
2023-05-13T09:34:10.384Z,19.60
2023-05-13T09:36:14.543Z,19.70
2023-05-13T09:38:18.986Z,19.80
2023-05-13T09:40:22.157Z,19.90
2023-05-13T09:42:25.330Z,19.90
2023-05-13T09:44:31.041Z,20.00
2023-05-13T09:46:34.634Z,20.10
2023-05-13T09:48:39.450Z,20.20
2023-05-13T09:50:48.960Z,20.20
2023-05-13T09:52:53.339Z,20.30
2023-05-13T09:54:57.821Z,20.40
2023-05-13T09:57:01.029Z,20.50
2023-05-13T09:59:04.707Z,20.60
2023-05-13T10:01:07.687Z,20.60
2023-05-13T10:03:11.764Z,20.60
2023-05-13T10:05:14.834Z,20.70
2023-05-13T10:07:17.643Z,20.90
2023-05-13T10:09:23.107Z,21.00
2023-05-13T10:11:28.554Z,21.20
2023-05-13T10:13:33.970Z,21.30
2023-05-13T10:15:37.101Z,21.40
2023-05-13T10:17:42.283Z,21.60
2023-05-13T10:19:45.584Z,21.70
2023-05-13T10:21:50.351Z,21.80
2023-05-13T10:23:53.748Z,21.70
2023-05-13T10:26:00.138Z,21.60
2023-05-13T10:28:04.998Z,21.40
2023-05-13T10:30:10.281Z,21.30
2023-05-13T10:32:14.786Z,21.40
2023-05-13T10:34:18.522Z,21.30
2023-05-13T10:36:48.946Z,21.50
2023-05-13T10:39:05.636Z,21.70
2023-05-13T10:41:15.679Z,21.80
2023-05-13T10:43:19.687Z,22.10
2023-05-13T10:45:27.180Z,22.40
2023-05-13T10:47:33.084Z,22.70
2023-05-13T10:49:37.069Z,23.00
2023-05-13T10:51:47.043Z,23.20
2023-05-13T10:53:51.931Z,23.40
2023-05-13T10:55:56.424Z,23.40
2023-05-13T10:58:09.463Z,23.50
2023-05-13T11:00:16.379Z,23.50
2023-05-13T11:02:22.697Z,23.60
2023-05-13T11:04:25.691Z,23.50
2023-05-13T11:06:34.508Z,23.30
2023-05-13T11:08:38.677Z,23.00
2023-05-13T11:10:42.125Z,22.90
2023-05-13T11:13:09.913Z,22.90
2023-05-13T11:15:22.748Z,23.00
2023-05-13T11:17:25.844Z,23.10
2023-05-13T11:19:30.576Z,22.90
2023-05-13T11:21:35.844Z,22.60
2023-05-13T11:23:52.651Z,22.60
2023-05-13T11:26:12.336Z,22.80
2023-05-13T11:28:39.417Z,23.20
2023-05-13T11:30:42.198Z,23.40
2023-05-13T11:32:53.962Z,23.20
2023-05-13T11:34:57.377Z,23.20
2023-05-13T11:37:09.545Z,23.10
2023-05-13T11:39:14.778Z,23.00
2023-05-13T11:41:17.905Z,22.80
2023-05-13T11:43:23.223Z,22.80
2023-05-13T11:45:27.045Z,22.80
2023-05-13T11:47:29.780Z,22.70
2023-05-13T11:49:37.390Z,22.50
2023-05-13T11:51:40.188Z,22.40
2023-05-13T11:53:43.048Z,22.40
2023-05-13T11:55:45.945Z,22.40
2023-05-13T11:57:49.701Z,22.30
2023-05-13T11:59:58.974Z,22.20
2023-05-13T12:02:02.545Z,22.20
2023-05-13T12:04:05.562Z,22.10
2023-05-13T12:06:08.611Z,22.00
2023-05-13T12:08:12.065Z,22.00
2023-05-13T12:10:15.021Z,22.00
2023-05-13T12:12:18.442Z,22.00
2023-05-13T12:14:21.837Z,22.00
2023-05-13T12:16:26.359Z,21.80
2023-05-13T12:18:29.260Z,21.30
2023-05-13T12:20:34.044Z,20.70
2023-05-13T12:22:37.709Z,19.90
2023-05-13T12:24:40.420Z,19.00
2023-05-13T12:26:43.349Z,18.20
2023-05-13T12:28:46.218Z,17.20
2023-05-13T12:30:53.705Z,16.30
2023-05-13T12:33:01.122Z,15.60
2023-05-13T12:35:03.916Z,15.00
2023-05-13T12:37:13.801Z,14.60
2023-05-13T12:39:23.669Z,14.40
2023-05-13T12:41:28.771Z,14.30
2023-05-13T12:43:34.806Z,14.40
2023-05-13T12:45:41.195Z,14.40
2023-05-13T12:47:51.961Z,14.50
2023-05-13T12:49:58.125Z,14.60
2023-05-13T12:52:01.041Z,14.80
2023-05-13T12:54:03.742Z,15.00
2023-05-13T12:56:07.111Z,15.20
2023-05-13T12:58:12.007Z,15.40
2023-05-13T13:00:15.796Z,15.60
2023-05-13T13:02:18.513Z,15.70
2023-05-13T13:04:21.494Z,15.80
2023-05-13T13:06:25.622Z,15.90
2023-05-13T13:08:31.745Z,16.00
2023-05-13T13:10:34.680Z,16.10
2023-05-13T13:12:37.383Z,16.30
2023-05-13T13:14:40.072Z,16.50
2023-05-13T13:16:42.904Z,16.60
2023-05-13T13:18:45.787Z,16.70
2023-05-13T13:20:48.557Z,16.80
2023-05-13T13:22:54.649Z,17.00
2023-05-13T13:24:57.389Z,17.20
2023-05-13T13:27:00.370Z,17.30
2023-05-13T13:29:03.145Z,17.30
2023-05-13T13:31:07.581Z,17.40
2023-05-13T13:33:12.848Z,17.50
2023-05-13T13:35:16.043Z,17.60
2023-05-13T13:37:18.890Z,17.80
2023-05-13T13:39:23.551Z,17.90
2023-05-13T13:41:26.486Z,18.00
2023-05-13T13:43:29.538Z,18.10
2023-05-13T13:45:32.489Z,18.10
2023-05-13T13:47:35.639Z,18.20
2023-05-13T13:49:38.413Z,18.50
2023-05-13T13:51:41.330Z,18.90
2023-05-13T13:53:44.258Z,19.30
2023-05-13T13:55:48.351Z,19.80
2023-05-13T13:57:51.754Z,20.20
2023-05-13T13:59:54.532Z,20.70
2023-05-13T14:01:57.610Z,21.30
2023-05-13T14:04:11.711Z,21.70
2023-05-13T14:06:14.710Z,21.90
2023-05-13T14:08:17.660Z,22.00
2023-05-13T14:10:20.936Z,22.10
2023-05-13T14:12:25.359Z,21.90
2023-05-13T14:14:28.309Z,21.80
2023-05-13T14:16:31.397Z,21.90
2023-05-13T14:18:34.387Z,22.10
2023-05-13T14:20:38.702Z,22.30
2023-05-13T14:22:42.728Z,22.40
2023-05-13T14:24:45.634Z,22.90
2023-05-13T14:26:48.503Z,23.00
2023-05-13T14:28:52.840Z,23.00
2023-05-13T14:30:55.671Z,22.90
2023-05-13T14:33:00.511Z,22.70
2023-05-13T14:35:03.535Z,22.50
2023-05-13T14:37:06.675Z,22.20
2023-05-13T14:39:10.510Z,22.30
2023-05-13T14:41:19.545Z,22.50
2023-05-13T14:43:22.487Z,22.60
2023-05-13T14:45:26.850Z,22.80
2023-05-13T14:47:29.891Z,23.10
2023-05-13T14:49:32.717Z,23.40
2023-05-13T14:51:35.903Z,23.60
2023-05-13T14:53:39.076Z,23.80
2023-05-13T14:55:41.883Z,24.00
2023-05-13T14:57:44.730Z,24.30
2023-05-13T14:59:47.503Z,24.70
2023-05-13T15:01:52.037Z,24.90
2023-05-13T15:03:54.848Z,24.90
2023-05-13T15:05:58.305Z,25.10
2023-05-13T15:08:01.192Z,25.20
2023-05-13T15:10:04.194Z,25.20
2023-05-13T15:12:08.203Z,25.40
2023-05-13T15:14:11.088Z,25.40
2023-05-13T15:16:13.953Z,25.50
2023-05-13T15:18:18.117Z,25.50
2023-05-13T15:20:21.167Z,25.80
2023-05-13T15:22:24.135Z,26.10
2023-05-13T15:24:26.872Z,26.20
2023-05-13T15:26:29.648Z,26.20
2023-05-13T15:28:32.421Z,26.40
2023-05-13T15:30:36.264Z,26.80
2023-05-13T15:32:39.363Z,26.90
2023-05-13T15:34:43.525Z,27.20
2023-05-13T15:36:46.368Z,27.30
2023-05-13T15:38:49.239Z,27.10
2023-05-13T15:40:52.179Z,27.00
2023-05-13T15:42:54.944Z,27.30
2023-05-13T15:44:57.793Z,27.40
2023-05-13T15:47:02.008Z,27.60
2023-05-13T15:49:04.980Z,27.70
2023-05-13T15:51:09.368Z,27.70
2023-05-13T15:53:12.227Z,27.80
2023-05-13T15:55:15.047Z,27.80
2023-05-13T15:57:19.042Z,27.70
2023-05-13T15:59:21.994Z,27.80
2023-05-13T16:01:24.908Z,27.90
2023-05-13T16:03:27.765Z,28.10
2023-05-13T16:05:30.800Z,28.20
2023-05-13T16:07:35.027Z,28.20
2023-05-13T16:09:38.161Z,28.30
2023-05-13T16:11:42.514Z,28.40
2023-05-13T16:13:45.496Z,28.40
2023-05-13T16:15:48.601Z,28.50
2023-05-13T16:17:51.402Z,28.40
2023-05-13T16:19:54.134Z,28.40
2023-05-13T16:21:56.940Z,28.40
2023-05-13T16:24:01.087Z,28.40
2023-05-13T16:26:04.119Z,28.60
2023-05-13T16:28:07.064Z,28.50
2023-05-13T16:30:12.145Z,28.50
2023-05-13T16:32:14.897Z,28.50
2023-05-13T16:34:17.675Z,28.40
2023-05-13T16:36:20.430Z,28.50
2023-05-13T16:38:23.422Z,28.40
2023-05-13T16:40:27.996Z,28.00
2023-05-13T16:42:30.794Z,27.90
2023-05-13T16:44:33.616Z,28.10
2023-05-13T16:46:36.586Z,28.30
2023-05-13T16:48:39.445Z,28.30
2023-05-13T16:50:42.217Z,28.50
2023-05-13T16:52:45.058Z,28.50
2023-05-13T16:54:48.293Z,28.50
2023-05-13T16:56:52.447Z,28.50
2023-05-13T16:58:55.301Z,28.40
2023-05-13T17:00:59.370Z,28.50
2023-05-13T17:03:02.632Z,28.60
2023-05-13T17:05:06.211Z,28.70
2023-05-13T17:07:09.239Z,29.00
2023-05-13T17:09:12.341Z,29.10
2023-05-13T17:11:17.624Z,29.30
2023-05-13T17:13:22.043Z,28.80
2023-05-13T17:15:25.091Z,28.40
2023-05-13T17:17:27.988Z,27.60
2023-05-13T17:19:30.735Z,26.60
2023-05-13T17:21:33.521Z,25.40
2023-05-13T17:23:36.524Z,24.50
2023-05-13T17:25:39.267Z,23.70
2023-05-13T17:27:42.160Z,23.00
2023-05-13T17:29:46.295Z,22.40
2023-05-13T17:31:51.610Z,21.90
2023-05-13T17:33:54.483Z,21.50
2023-05-13T17:35:57.315Z,21.20
2023-05-13T17:38:00.075Z,20.90
2023-05-13T17:40:02.828Z,20.60
2023-05-13T17:42:05.743Z,20.40
2023-05-13T17:44:08.510Z,20.20
2023-05-13T17:46:13.158Z,20.10
2023-05-13T17:48:16.133Z,19.80
2023-05-13T17:50:18.924Z,19.50
2023-05-13T17:52:21.752Z,19.20
2023-05-13T17:54:24.595Z,18.80
2023-05-13T17:56:27.390Z,18.50
2023-05-13T17:58:30.546Z,18.30
2023-05-13T18:00:33.362Z,18.20
2023-05-13T18:02:37.484Z,18.20
2023-05-13T18:04:40.926Z,18.10
2023-05-13T18:06:43.911Z,18.10
2023-05-13T18:08:46.628Z,17.90
2023-05-13T18:10:49.844Z,17.70
2023-05-13T18:12:52.647Z,17.60
2023-05-13T18:14:55.593Z,17.40
2023-05-13T18:16:58.460Z,17.20
2023-05-13T18:19:02.889Z,17.10
2023-05-13T18:21:05.768Z,17.00
2023-05-13T18:23:08.562Z,17.00
2023-05-13T18:25:11.625Z,16.80
2023-05-13T18:27:14.959Z,16.80
2023-05-13T18:29:17.841Z,16.70
2023-05-13T18:31:20.635Z,16.70
2023-05-13T18:33:23.564Z,16.60
2023-05-13T18:35:27.844Z,16.50
2023-05-13T18:37:30.668Z,16.30
2023-05-13T18:39:33.581Z,16.20
2023-05-13T18:41:36.417Z,16.10
2023-05-13T18:43:39.248Z,16.10
2023-05-13T18:45:42.821Z,16.10
2023-05-13T18:47:45.722Z,16.00
2023-05-13T18:49:48.560Z,15.80
2023-05-13T18:51:52.675Z,15.70
2023-05-13T18:53:55.874Z,15.60
2023-05-13T18:55:58.734Z,15.50
2023-05-13T18:58:01.472Z,15.40
2023-05-13T19:00:05.114Z,15.30
2023-05-13T19:02:08.018Z,15.20
2023-05-13T19:04:12.151Z,15.20
2023-05-13T19:06:15.557Z,15.10
2023-05-13T19:08:19.655Z,15.00
2023-05-13T19:10:22.577Z,14.90
2023-05-13T19:12:26.339Z,14.80
2023-05-13T19:14:29.112Z,14.70
2023-05-13T19:16:32.211Z,14.70
2023-05-13T19:18:35.490Z,14.60
2023-05-13T19:20:38.359Z,14.50
2023-05-13T19:22:41.411Z,14.50
2023-05-13T19:24:45.658Z,14.40
2023-05-13T19:26:48.426Z,14.30
2023-05-13T19:28:51.170Z,14.30
2023-05-13T19:30:54.506Z,14.30
2023-05-13T19:32:57.377Z,14.30
2023-05-13T19:35:00.275Z,14.20
2023-05-13T19:37:04.381Z,14.20
2023-05-13T19:39:07.172Z,14.20
2023-05-13T19:41:11.358Z,14.20
2023-05-13T19:43:14.503Z,14.20
2023-05-13T19:45:19.693Z,14.20
2023-05-13T19:47:22.560Z,14.10
2023-05-13T19:49:26.081Z,14.00
2023-05-13T19:51:28.829Z,14.00
2023-05-13T19:53:31.641Z,14.00
2023-05-13T19:55:35.381Z,13.90
2023-05-13T19:57:41.425Z,13.90
2023-05-13T19:59:44.239Z,13.90
2023-05-13T20:01:47.110Z,13.90
2023-05-13T20:03:50.173Z,13.80
2023-05-13T20:05:53.764Z,13.70
2023-05-13T20:07:56.893Z,13.60
2023-05-13T20:09:59.639Z,13.50
2023-05-13T20:12:03.679Z,13.40
2023-05-13T20:14:07.785Z,13.30
2023-05-13T20:16:10.666Z,13.40
2023-05-13T20:18:13.722Z,13.30
2023-05-13T20:20:16.670Z,13.30
2023-05-13T20:22:20.202Z,13.30
2023-05-13T20:24:23.219Z,13.20
2023-05-13T20:26:26.135Z,13.10
2023-05-13T20:28:28.916Z,13.10
2023-05-13T20:30:32.989Z,13.00
2023-05-13T20:32:36.352Z,12.90
2023-05-13T20:34:39.319Z,12.80
2023-05-13T20:36:42.097Z,12.70
2023-05-13T20:38:44.878Z,12.70
2023-05-13T20:40:47.837Z,12.70
2023-05-13T20:42:50.651Z,12.60
2023-05-13T20:44:53.562Z,12.60
2023-05-13T20:46:57.607Z,12.50
2023-05-13T20:49:00.375Z,12.50
2023-05-13T20:51:04.463Z,12.40
2023-05-13T20:53:07.509Z,12.40
2023-05-13T20:55:11.043Z,12.40
2023-05-13T20:57:13.840Z,12.40
2023-05-13T20:59:16.701Z,12.40
2023-05-13T21:01:19.778Z,12.40
2023-05-13T21:03:24.109Z,12.40
2023-05-13T21:05:26.995Z,12.30
2023-05-13T21:07:30.008Z,12.30
2023-05-13T21:09:32.808Z,12.20
2023-05-13T21:11:35.613Z,12.10
2023-05-13T21:13:38.393Z,12.10
2023-05-13T21:15:41.187Z,12.10
2023-05-13T21:17:44.244Z,12.00
2023-05-13T21:19:48.904Z,12.00
2023-05-13T21:21:51.977Z,11.90
2023-05-13T21:23:54.731Z,11.80
2023-05-13T21:25:57.566Z,11.70
2023-05-13T21:28:00.350Z,11.60
2023-05-13T21:30:03.399Z,11.60
2023-05-13T21:32:06.990Z,11.50
2023-05-13T21:34:09.827Z,11.50
2023-05-13T21:36:14.032Z,11.50
2023-05-13T21:38:16.760Z,11.40
2023-05-13T21:40:20.868Z,11.40
2023-05-13T21:42:23.697Z,11.30
2023-05-13T21:44:26.445Z,11.30
2023-05-13T21:46:29.235Z,11.30
2023-05-13T21:48:32.053Z,11.30
2023-05-13T21:50:35.158Z,11.30
2023-05-13T21:52:39.681Z,11.30
2023-05-13T21:54:42.476Z,11.30
2023-05-13T21:56:45.277Z,11.20
2023-05-13T21:58:49.734Z,11.20
2023-05-13T22:00:53.529Z,11.10
2023-05-13T22:02:57.105Z,11.10
2023-05-13T22:05:00.032Z,11.10
2023-05-13T22:07:03.271Z,11.10
2023-05-13T22:09:07.528Z,11.10
2023-05-13T22:11:11.256Z,11.10
2023-05-13T22:13:13.996Z,11.00
2023-05-13T22:15:17.050Z,11.10
2023-05-13T22:17:19.922Z,11.10
2023-05-13T22:19:22.905Z,11.10
2023-05-13T22:21:25.758Z,11.10
2023-05-13T22:23:28.806Z,11.00
2023-05-13T22:25:32.923Z,11.00
2023-05-13T22:27:35.727Z,11.00
2023-05-13T22:29:38.461Z,10.90
2023-05-13T22:31:41.246Z,10.90
2023-05-13T22:33:44.731Z,10.90
2023-05-13T22:35:47.480Z,10.90
2023-05-13T22:37:50.471Z,10.90
2023-05-13T22:39:53.504Z,10.80
2023-05-13T22:41:57.672Z,10.80
2023-05-13T22:44:00.625Z,10.80
2023-05-13T22:46:03.500Z,10.80
2023-05-13T22:48:06.749Z,10.80
2023-05-13T22:50:12.115Z,10.70
2023-05-13T22:52:14.812Z,10.70
2023-05-13T22:54:17.595Z,10.60
2023-05-13T22:56:21.713Z,10.60
2023-05-13T22:58:25.868Z,10.60
2023-05-13T23:00:28.587Z,10.50
2023-05-13T23:02:31.345Z,10.50
2023-05-13T23:04:34.137Z,10.50
2023-05-13T23:06:37.334Z,10.50
2023-05-13T23:08:40.138Z,10.60
2023-05-13T23:10:42.899Z,10.60
2023-05-13T23:12:45.712Z,10.60
2023-05-13T23:14:50.058Z,10.60
2023-05-13T23:16:52.804Z,10.60
2023-05-13T23:18:56.052Z,10.60
2023-05-13T23:20:58.912Z,10.60
2023-05-13T23:23:01.644Z,10.50
2023-05-13T23:25:04.857Z,10.50
2023-05-13T23:27:07.904Z,10.40
2023-05-13T23:29:10.729Z,10.40
2023-05-13T23:31:14.971Z,10.40
2023-05-13T23:33:17.739Z,10.40
2023-05-13T23:35:20.616Z,10.30
2023-05-13T23:37:23.389Z,10.30
2023-05-13T23:39:26.142Z,10.20
2023-05-13T23:41:28.849Z,10.10
2023-05-13T23:43:31.574Z,10.10
2023-05-13T23:45:34.292Z,10.00
2023-05-13T23:47:38.435Z,10.00
2023-05-13T23:49:41.281Z,10.00
2023-05-13T23:51:44.069Z,9.90
2023-05-13T23:53:47.001Z,9.90
2023-05-13T23:55:49.959Z,9.90
2023-05-13T23:57:52.965Z,9.90
2023-05-13T23:59:55.688Z,9.80
